Time;durP1;ratioP1;P1;durP2;ratioP2;P2;SDS_P1;SDS_P2;PMS_P1;PMS_P2;Temp;Humidity;BMP_temperature;BMP_pressure;BME280_temperature;BME280_humidity;BME280_pressure;Samples;Min_cycle;Max_cycle;Signal;HPM_P1;HPM_P2
2022/01/26 00:06:38;;;;;;;69.07;19.90;;;2.00;99.90;;;;;;5095393;28;20074;-80
2022/01/26 00:09:05;;;;;;;63.97;18.53;;;2.00;99.90;;;;;;5094628;28;20097;-81
2022/01/26 00:11:31;;;;;;;70.97;20.20;;;2.00;99.90;;;;;;5094318;28;20050;-80
2022/01/26 00:13:59;;;;;;;64.40;20.00;;;2.00;99.90;;;;;;5095776;28;20032;-80
2022/01/26 00:16:28;;;;;;;64.83;19.40;;;2.00;99.90;;;;;;5093281;28;20238;-79
2022/01/26 00:19:00;;;;;;;69.53;20.40;;;2.00;99.90;;;;;;5094547;28;20081;-80
2022/01/26 00:21:30;;;;;;;;;;;2.00;99.90;;;;;;5095542;28;20065;-80
2022/01/26 00:26:36;;;;;;;70.93;21.20;;;1.90;99.90;;;;;;5109784;28;20461;-80
2022/01/26 00:40:52;;;;;;;63.17;17.13;;;1.90;99.90;;;;;;5115650;28;20034;-81
2022/01/26 00:43:21;;;;;;;61.20;17.40;;;1.90;99.90;;;;;;5112453;28;20067;-81
2022/01/26 00:45:54;;;;;;;47.10;16.07;;;1.90;99.90;;;;;;5099049;28;20034;-81
2022/01/26 00:48:20;;;;;;;48.93;15.97;;;1.90;99.90;;;;;;5097098;28;20028;-80
2022/01/26 00:50:50;;;;;;;47.93;16.87;;;1.90;99.90;;;;;;5096860;28;20023;-80
2022/01/26 00:53:17;;;;;;;57.17;16.93;;;1.90;99.90;;;;;;5114708;28;20027;-80
2022/01/26 00:55:44;;;;;;;57.60;18.73;;;1.90;99.90;;;;;;5097315;28;20064;-79
2022/01/26 00:58:09;;;;;;;53.30;16.77;;;1.90;99.90;;;;;;5096771;28;20034;-79
2022/01/26 01:00:35;;;;;;;62.17;18.90;;;1.80;99.90;;;;;;5096342;28;20223;-80
2022/01/26 01:03:01;;;;;;;70.03;18.97;;;1.70;99.90;;;;;;5096770;28;20027;-80
2022/01/26 01:05:40;;;;;;;73.73;19.83;;;1.80;99.90;;;;;;5096321;28;20516;-80
2022/01/26 01:08:11;;;;;;;75.80;20.63;;;1.80;99.90;;;;;;5097048;28;20039;-80
2022/01/26 01:10:38;;;;;;;66.70;19.50;;;1.70;99.90;;;;;;5114609;28;20030;-80
2022/01/26 01:13:07;;;;;;;73.17;19.33;;;1.70;99.90;;;;;;5114955;28;20101;-80
2022/01/26 01:15:33;;;;;;;66.70;19.93;;;1.70;99.90;;;;;;5114647;28;20369;-80
2022/01/26 01:18:14;;;;;;;82.23;20.00;;;1.70;99.90;;;;;;5096922;28;20023;-80
2022/01/26 01:30:58;;;;;;;68.93;19.57;;;1.40;99.90;;;;;;5114794;28;20024;-79
2022/01/26 01:33:31;;;;;;;69.40;19.47;;;1.40;99.90;;;;;;5096681;28;20442;-80
2022/01/26 01:35:58;;;;;;;61.90;18.80;;;1.40;99.90;;;;;;5114652;28;20031;-80
2022/01/26 01:38:27;;;;;;;82.03;19.57;;;1.50;99.90;;;;;;5114075;28;20020;-81
2022/01/26 01:40:53;;;;;;;72.73;20.43;;;1.50;99.90;;;;;;5096692;28;20031;-80
2022/01/26 01:43:21;;;;;;;65.60;19.20;;;1.40;99.90;;;;;;5114070;28;20098;-81
2022/01/26 01:45:50;;;;;;;69.27;18.57;;;1.40;99.90;;;;;;5096410;28;20025;-80
2022/01/26 01:48:21;;;;;;;66.53;19.13;;;1.40;99.90;;;;;;5096173;28;20085;-80
2022/01/26 01:50:50;;;;;;;74.72;19.75;;;1.50;99.90;;;;;;5114279;28;20106;-79
2022/01/26 01:53:17;;;;;;;64.47;18.13;;;1.40;99.90;;;;;;5096178;28;20036;-80
2022/01/26 01:55:50;;;;;;;64.83;18.97;;;1.40;99.90;;;;;;5095719;28;20027;-80
2022/01/26 01:58:19;;;;;;;62.40;18.57;;;1.40;99.90;;;;;;5096547;28;20062;-80
2022/01/26 02:00:46;;;;;;;58.03;16.87;;;1.40;99.90;;;;;;5096702;28;20024;-82
2022/01/26 02:03:12;;;;;;;56.77;16.93;;;1.40;99.90;;;;;;5096468;28;20024;-82
2022/01/26 02:05:37;;;;;;;65.90;18.67;;;1.50;99.90;;;;;;5095950;28;20028;-82
2022/01/26 02:08:04;;;;;;;61.37;17.10;;;1.40;99.90;;;;;;5096354;28;20055;-82
2022/01/26 02:10:31;;;;;;;64.10;17.80;;;1.40;99.90;;;;;;5099359;28;20034;-82
2022/01/26 02:13:00;;;;;;;60.13;17.73;;;1.40;99.90;;;;;;5114483;28;20076;-82
2022/01/26 02:15:35;;;;;;;65.97;18.17;;;1.40;99.90;;;;;;5095684;28;20032;-80
2022/01/26 02:18:22;;;;;;;55.80;16.30;;;1.40;99.90;;;;;;5096231;28;20039;-80
2022/01/26 02:56:01;;;;;;;34.60;11.57;;;1.10;99.90;;;;;;5117884;28;20110;-82
2022/01/26 03:06:13;;;;;;;41.30;12.37;;;1.10;99.90;;;;;;5117764;28;20057;-82
2022/01/26 03:08:43;;;;;;;37.37;13.27;;;1.10;99.90;;;;;;5117343;28;20022;-82
2022/01/26 03:11:12;;;;;;;43.70;13.03;;;1.10;99.90;;;;;;5099641;28;20019;-82
2022/01/26 03:13:54;;;;;;;42.23;13.20;;;1.10;99.90;;;;;;5117325;28;20034;-82
2022/01/26 03:16:31;;;;;;;41.05;13.00;;;1.10;99.90;;;;;;5099458;28;20145;-81
2022/01/26 03:21:34;;;;;;;44.57;13.80;;;1.10;99.90;;;;;;5117456;28;20020;-82
2022/01/26 03:34:34;;;;;;;44.47;13.43;;;1.30;99.90;;;;;;5116910;28;20038;-82
2022/01/26 03:37:06;;;;;;;37.03;13.30;;;1.30;99.90;;;;;;5099202;28;20020;-82
2022/01/26 03:39:40;;;;;;;38.55;13.88;;;1.20;99.90;;;;;;5116843;28;20024;-82
2022/01/26 03:42:07;;;;;;;33.23;11.20;;;1.30;99.90;;;;;;5098945;28;20404;-82
2022/01/26 03:44:41;;;;;;;40.30;11.67;;;1.20;99.90;;;;;;5098414;28;20107;-82
2022/01/26 03:47:06;;;;;;;30.63;11.50;;;1.20;99.90;;;;;;5098359;28;20062;-81
2022/01/26 03:49:32;;;;;;;32.70;10.47;;;1.20;99.90;;;;;;5116032;28;20032;-82
2022/01/26 03:51:58;;;;;;;35.93;11.27;;;1.20;99.90;;;;;;5097586;28;20077;-82
2022/01/26 03:54:24;;;;;;;36.07;11.97;;;1.20;99.90;;;;;;5098617;28;20543;-82
2022/01/26 03:56:49;;;;;;;39.30;10.97;;;1.20;99.90;;;;;;5098273;28;20066;-82
2022/01/26 03:59:15;;;;;;;34.47;11.97;;;1.20;99.90;;;;;;5098671;28;20103;-82
2022/01/26 04:01:41;;;;;;;32.30;10.37;;;1.20;99.90;;;;;;5097887;28;20472;-82
2022/01/26 04:04:07;;;;;;;30.33;10.73;;;1.20;99.90;;;;;;5098365;28;20039;-82
2022/01/26 04:06:34;;;;;;;26.90;9.70;;;1.20;99.90;;;;;;5115990;28;20536;-82
2022/01/26 04:09:02;;;;;;;29.93;10.40;;;1.20;99.90;;;;;;5098255;28;20062;-82
2022/01/26 04:13:53;;;;;;;33.70;11.47;;;1.20;99.90;;;;;;5116098;28;20066;-82
2022/01/26 04:16:20;;;;;;;39.40;12.00;;;1.20;99.90;;;;;;5116206;28;20035;-82
2022/01/26 04:18:46;;;;;;;34.40;10.93;;;1.20;99.90;;;;;;5097624;28;20477;-82
2022/01/26 04:29:32;;;;;;;26.03;10.43;;;1.20;99.90;;;;;;5107259;28;20118;-83
2022/01/26 04:31:58;;;;;;;30.30;10.70;;;1.20;99.90;;;;;;5097436;28;20023;-80
2022/01/26 04:34:25;;;;;;;29.87;10.27;;;1.20;99.90;;;;;;5115371;28;20031;-80
2022/01/26 04:36:56;;;;;;;35.63;11.30;;;1.20;99.90;;;;;;5097214;28;20123;-80
2022/01/26 04:39:31;;;;;;;30.38;10.82;;;1.20;99.90;;;;;;5097844;28;20366;-80
2022/01/26 04:42:11;;;;;;;34.20;10.63;;;1.10;99.90;;;;;;5096891;28;20050;-78
2022/01/26 04:45:01;;;;;;;32.03;10.17;;;1.10;99.90;;;;;;5096964;28;20028;-78
2022/01/26 04:47:25;;;;;;;33.00;10.50;;;1.10;99.90;;;;;;5114221;28;20031;-78
2022/01/26 04:49:51;;;;;;;25.37;10.37;;;1.10;99.90;;;;;;5114553;28;20034;-78
2022/01/26 04:52:16;;;;;;;29.20;9.80;;;1.10;99.90;;;;;;5114795;27;20465;-79
2022/01/26 04:54:42;;;;;;;34.63;10.77;;;1.10;99.90;;;;;;5114599;28;20032;-79
2022/01/26 04:57:08;;;;;;;31.73;10.37;;;1.10;99.90;;;;;;5114945;28;20028;-79
2022/01/26 04:59:33;;;;;;;30.40;10.03;;;1.10;99.90;;;;;;5096454;28;20524;-80
2022/01/26 05:01:59;;;;;;;31.57;11.07;;;1.10;99.90;;;;;;5096170;28;20042;-79
2022/01/26 05:04:24;;;;;;;31.83;11.00;;;1.10;99.90;;;;;;5114971;28;20053;-78
2022/01/26 05:06:50;;;;;;;32.23;11.33;;;1.10;99.90;;;;;;5114385;28;20080;-79
2022/01/26 05:09:18;;;;;;;34.63;12.03;;;1.10;99.90;;;;;;5096856;28;20059;-79
2022/01/26 05:11:47;;;;;;;30.73;11.60;;;1.10;99.90;;;;;;5113412;28;20058;-78
2022/01/26 05:14:12;;;;;;;33.00;11.23;;;1.10;99.90;;;;;;5096293;28;20433;-78
2022/01/26 05:16:38;;;;;;;34.40;10.83;;;1.00;99.90;;;;;;5095755;28;20043;-79
2022/01/26 05:19:05;;;;;;;36.37;12.03;;;1.10;99.90;;;;;;5096448;28;20058;-78
2022/01/26 05:21:31;;;;;;;41.03;12.17;;;1.00;99.90;;;;;;5095885;28;20086;-82
2022/01/26 05:23:57;;;;;;;35.87;12.60;;;1.10;99.90;;;;;;5096571;28;20476;-80
2022/01/26 05:26:22;;;;;;;38.60;13.37;;;1.00;99.90;;;;;;5093112;28;20083;-79
2022/01/26 05:28:48;;;;;;;32.40;12.03;;;1.00;99.90;;;;;;5092912;28;20030;-78
2022/01/26 05:31:14;;;;;;;42.93;12.57;;;1.10;99.90;;;;;;5093092;28;20028;-81
2022/01/26 05:33:41;;;;;;;36.97;12.90;;;1.10;99.90;;;;;;5093843;28;20111;-82
2022/01/26 05:36:07;;;;;;;40.60;12.97;;;1.00;99.90;;;;;;5093431;28;20028;-82
2022/01/26 05:38:33;;;;;;;41.93;13.97;;;1.10;99.90;;;;;;5093229;28;20031;-84
2022/01/26 05:41:01;;;;;;;39.57;13.03;;;1.10;99.90;;;;;;5094147;28;20027;-80
2022/01/26 05:43:31;;;;;;;39.17;12.33;;;1.10;99.90;;;;;;5093942;28;20027;-78
2022/01/26 05:46:02;;;;;;;39.43;13.63;;;1.10;99.90;;;;;;5093755;28;20024;-78
2022/01/26 05:48:28;;;;;;;41.45;13.80;;;1.20;99.90;;;;;;5092991;28;20024;-79
2022/01/26 05:50:56;;;;;;;43.57;13.60;;;1.10;99.90;;;;;;5091927;28;20074;-79
2022/01/26 05:53:21;;;;;;;42.90;13.97;;;1.10;99.90;;;;;;5092707;28;20123;-79
2022/01/26 05:55:53;;;;;;;40.40;13.07;;;1.10;99.90;;;;;;5093320;28;20055;-79
2022/01/26 05:58:19;;;;;;;42.15;13.30;;;1.10;99.90;;;;;;5093884;28;20066;-79
2022/01/26 06:00:44;;;;;;;37.83;12.87;;;1.10;99.90;;;;;;5092284;28;20461;-79
2022/01/26 06:03:10;;;;;;;34.23;12.57;;;1.10;99.90;;;;;;5093773;28;20408;-79
2022/01/26 06:05:36;;;;;;;34.60;12.00;;;1.10;99.90;;;;;;5092177;28;20032;-80
2022/01/26 06:08:01;;;;;;;31.57;11.10;;;1.10;99.90;;;;;;5092762;28;20024;-80
2022/01/26 06:10:30;;;;;;;33.43;11.83;;;1.10;99.90;;;;;;5093850;28;20024;-80
2022/01/26 06:12:55;;;;;;;35.50;10.80;;;1.00;99.90;;;;;;5092027;28;20119;-80
2022/01/26 06:15:21;;;;;;;33.20;11.43;;;1.00;99.90;;;;;;5094809;28;20068;-79
2022/01/26 06:17:47;;;;;;;36.23;12.03;;;1.00;99.90;;;;;;5096374;28;20032;-79
2022/01/26 06:20:13;;;;;;;35.47;12.37;;;1.00;99.90;;;;;;5096612;28;20024;-81
2022/01/26 06:22:39;;;;;;;35.80;12.13;;;1.00;99.90;;;;;;5096096;28;20042;-83
2022/01/26 06:25:07;;;;;;;36.93;11.67;;;1.00;99.90;;;;;;5101435;28;20361;-83
2022/01/26 06:27:35;;;;;;;36.40;12.27;;;1.00;99.90;;;;;;5100269;28;20110;-82
2022/01/26 06:30:01;;;;;;;35.30;11.87;;;1.00;99.90;;;;;;5100126;28;20126;-82
2022/01/26 06:32:28;;;;;;;35.20;13.03;;;1.00;99.90;;;;;;5100119;28;20028;-83
2022/01/26 06:34:54;;;;;;;37.33;12.97;;;1.10;99.90;;;;;;5099680;28;20027;-84
2022/01/26 06:37:20;;;;;;;36.37;11.30;;;1.00;99.90;;;;;;5118267;28;20030;-83
2022/01/26 06:39:46;;;;;;;36.90;11.80;;;1.10;99.90;;;;;;5117925;28;20110;-84
2022/01/26 06:42:15;;;;;;;39.13;13.90;;;1.00;99.90;;;;;;5099151;28;20031;-78
2022/01/26 06:44:57;;;;;;;40.00;13.00;;;0.90;99.90;;;;;;5099173;28;20076;-79
2022/01/26 06:49:52;;;;;;;39.80;12.63;;;1.00;99.90;;;;;;5117035;28;20023;-79
2022/01/26 06:52:17;;;;;;;41.47;14.73;;;1.00;99.90;;;;;;5099618;28;20104;-81
2022/01/26 06:54:43;;;;;;;38.63;12.73;;;1.00;99.90;;;;;;5117212;28;20089;-81
2022/01/26 06:57:09;;;;;;;43.03;13.00;;;1.00;99.90;;;;;;5100084;28;20031;-82
2022/01/26 06:59:35;;;;;;;37.50;12.57;;;1.10;99.90;;;;;;5099335;28;20114;-81
2022/01/26 07:02:00;;;;;;;37.60;13.33;;;1.10;99.90;;;;;;5099159;28;20023;-81
2022/01/26 07:04:41;;;;;;;38.33;14.17;;;1.00;99.90;;;;;;5117869;28;20038;-81
2022/01/26 07:07:07;;;;;;;49.23;14.13;;;1.10;99.90;;;;;;5099726;28;20026;-82
2022/01/26 07:09:32;;;;;;;46.17;15.00;;;1.00;99.90;;;;;;5099472;28;20028;-82
2022/01/26 07:11:58;;;;;;;42.73;14.47;;;1.00;99.90;;;;;;5099068;28;20081;-82
2022/01/26 07:22:34;;;;;;;48.33;14.80;;;1.00;99.90;;;;;;5117123;27;20031;-81
2022/01/26 07:25:00;;;;;;;43.47;15.47;;;0.90;99.90;;;;;;5116031;28;20560;-81
2022/01/26 07:27:26;;;;;;;40.17;13.03;;;0.90;99.90;;;;;;5099008;28;20031;-81
2022/01/26 07:29:52;;;;;;;39.67;13.00;;;0.90;99.90;;;;;;5097862;28;20126;-81
2022/01/26 07:32:18;;;;;;;39.70;13.50;;;0.90;99.90;;;;;;5098161;28;20084;-82
2022/01/26 07:34:45;;;;;;;33.67;11.70;;;0.90;99.90;;;;;;5116237;28;20028;-85
2022/01/26 07:37:13;;;;;;;38.80;13.00;;;1.00;99.90;;;;;;5116893;28;20024;-81
2022/01/26 07:39:45;;;;;;;43.57;13.30;;;1.00;99.90;;;;;;5098653;28;20464;-81
2022/01/26 07:42:12;;;;;;;40.38;12.05;;;1.00;99.90;;;;;;5098613;28;20430;-84
2022/01/26 07:44:37;;;;;;;37.67;12.03;;;1.00;99.90;;;;;;5098789;28;20023;-84
2022/01/26 07:47:07;;;;;;;40.93;12.03;;;1.00;99.90;;;;;;5116283;28;20035;-84
2022/01/26 07:49:32;;;;;;;42.13;13.07;;;1.00;99.90;;;;;;5098503;28;20058;-84
2022/01/26 07:51:59;;;;;;;42.23;13.80;;;1.00;99.90;;;;;;5116127;28;20430;-83
2022/01/26 07:54:25;;;;;;;39.37;12.80;;;1.10;99.90;;;;;;5116739;28;20486;-83
2022/01/26 07:56:51;;;;;;;35.57;11.90;;;1.10;99.90;;;;;;5098288;28;20092;-82
2022/01/26 07:59:16;;;;;;;37.40;13.00;;;1.00;99.90;;;;;;5098639;28;20024;-81
2022/01/26 08:01:42;;;;;;;39.93;12.20;;;0.90;99.90;;;;;;5097978;28;20024;-83
2022/01/26 08:04:08;;;;;;;35.60;12.70;;;0.90;99.90;;;;;;5098437;28;20028;-83
2022/01/26 08:06:33;;;;;;;40.70;12.93;;;1.00;99.90;;;;;;5098372;28;20096;-83
2022/01/26 08:08:59;;;;;;;38.47;13.70;;;0.90;99.90;;;;;;5097984;28;20024;-83
2022/01/26 08:11:25;;;;;;;43.47;13.87;;;1.00;99.90;;;;;;5115902;28;20106;-83
2022/01/26 08:13:51;;;;;;;38.67;13.63;;;1.00;99.90;;;;;;5115671;28;20032;-83
2022/01/26 08:16:17;;;;;;;40.77;12.90;;;0.90;99.90;;;;;;5098209;28;20034;-82
2022/01/26 08:18:42;;;;;;;40.03;12.83;;;0.90;99.90;;;;;;5097817;28;20032;-83
2022/01/26 08:21:08;;;;;;;38.70;13.67;;;0.90;99.90;;;;;;5097905;28;20026;-81
2022/01/26 08:23:36;;;;;;;32.33;12.17;;;0.90;99.90;;;;;;5098238;28;20028;-81
2022/01/26 08:26:03;;;;;;;42.43;13.50;;;0.90;99.90;;;;;;5097194;28;20302;-82
2022/01/26 08:28:35;;;;;;;39.67;12.77;;;1.00;99.90;;;;;;5098107;28;20082;-82
2022/01/26 08:31:01;;;;;;;39.80;13.53;;;1.00;99.90;;;;;;5097510;28;20028;-82
2022/01/26 08:33:26;;;;;;;38.87;12.73;;;1.00;99.90;;;;;;5097988;28;20122;-83
2022/01/26 08:35:52;;;;;;;37.57;13.60;;;0.90;99.90;;;;;;5097425;28;20101;-83
2022/01/26 08:38:19;;;;;;;37.03;12.77;;;0.90;99.90;;;;;;5096930;28;20024;-83
2022/01/26 08:40:46;;;;;;;30.70;11.77;;;0.90;99.90;;;;;;5097316;28;20024;-83
2022/01/26 08:43:13;;;;;;;32.80;12.40;;;0.80;99.90;;;;;;5097897;28;20027;-84
2022/01/26 08:45:39;;;;;;;40.17;13.80;;;0.80;99.90;;;;;;5097650;28;20031;-84
2022/01/26 08:48:06;;;;;;;38.80;13.63;;;0.80;99.90;;;;;;5097230;28;20034;-84
2022/01/26 08:50:32;;;;;;;36.43;13.07;;;0.80;99.90;;;;;;5097753;28;20024;-83
2022/01/26 08:52:58;;;;;;;38.60;14.20;;;0.80;99.90;;;;;;5115416;28;20023;-82
2022/01/26 08:55:24;;;;;;;36.20;13.23;;;0.80;99.90;;;;;;5115768;28;20027;-83
2022/01/26 08:57:49;;;;;;;33.73;13.43;;;0.80;99.90;;;;;;5096988;28;20023;-84
2022/01/26 09:00:17;;;;;;;37.30;13.53;;;0.80;99.90;;;;;;5097412;28;20024;-84
2022/01/26 09:02:43;;;;;;;36.77;13.07;;;0.80;99.90;;;;;;5097549;28;20035;-83
2022/01/26 09:05:09;;;;;;;34.37;12.13;;;0.90;99.90;;;;;;5096908;28;20460;-84
2022/01/26 09:07:36;;;;;;;33.20;12.10;;;0.90;99.90;;;;;;5115318;28;20024;-84
2022/01/26 09:10:03;;;;;;;31.10;11.27;;;0.90;99.90;;;;;;5096955;28;20027;-83
2022/01/26 09:12:31;;;;;;;31.93;12.17;;;1.00;99.90;;;;;;5097467;28;20031;-83
2022/01/26 09:15:00;;;;;;;28.07;11.50;;;1.00;99.90;;;;;;5096816;28;20026;-82
2022/01/26 09:17:30;;;;;;;30.33;12.53;;;1.00;99.90;;;;;;5097055;28;20089;-83
2022/01/26 09:19:58;;;;;;;25.80;11.33;;;0.90;99.90;;;;;;5096541;28;20024;-83
2022/01/26 09:22:24;;;;;;;27.13;10.53;;;0.90;99.90;;;;;;5097267;28;20115;-82
2022/01/26 09:24:50;;;;;;;28.83;11.73;;;1.00;99.90;;;;;;5096514;28;20051;-84
2022/01/26 09:27:17;;;;;;;28.97;11.17;;;1.00;99.90;;;;;;5097296;28;20072;-84
2022/01/26 09:29:44;;;;;;;27.77;10.83;;;0.90;99.90;;;;;;5097007;28;20073;-82
2022/01/26 09:32:13;;;;;;;30.20;11.10;;;0.90;99.90;;;;;;5096302;28;20110;-83
2022/01/26 09:34:40;;;;;;;34.43;11.97;;;0.90;99.90;;;;;;5114705;28;20142;-82
2022/01/26 09:37:10;;;;;;;32.43;11.23;;;0.90;99.90;;;;;;5096279;28;20464;-83
2022/01/26 09:39:37;;;;;;;27.30;11.07;;;0.90;99.90;;;;;;5096868;28;20024;-82
2022/01/26 09:42:03;;;;;;;28.43;10.40;;;0.90;99.90;;;;;;5096342;28;20027;-82
2022/01/26 09:44:35;;;;;;;27.17;10.73;;;0.90;99.90;;;;;;5096819;28;20027;-82
2022/01/26 09:47:01;;;;;;;32.85;11.30;;;0.80;99.90;;;;;;5113874;28;20024;-82
2022/01/26 09:49:33;;;;;;;28.43;11.03;;;0.80;99.90;;;;;;5096494;28;20039;-83
2022/01/26 09:52:02;;;;;;;28.90;10.13;;;0.70;99.90;;;;;;5096119;28;20047;-82
2022/01/26 09:54:30;;;;;;;24.27;9.63;;;0.70;99.90;;;;;;5096523;28;20027;-83
2022/01/26 09:57:04;;;;;;;24.93;10.20;;;0.80;99.90;;;;;;5096039;28;20027;-83
2022/01/26 09:59:31;;;;;;;26.03;10.40;;;0.80;99.90;;;;;;5096392;28;20027;-83
2022/01/26 10:01:58;;;;;;;26.83;10.97;;;0.80;99.90;;;;;;5095592;28;20028;-82
2022/01/26 10:04:37;;;;;;;29.30;10.83;;;0.90;99.90;;;;;;5096322;28;20030;-82
2022/01/26 10:07:16;;;;;;;27.63;10.97;;;1.00;99.90;;;;;;5096067;28;20023;-83
2022/01/26 10:17:42;;;;;;;26.80;10.53;;;1.00;99.90;;;;;;5114509;28;20042;-82
2022/01/26 10:20:17;;;;;;;32.03;10.47;;;1.00;99.90;;;;;;5095548;28;20077;-81
2022/01/26 10:22:43;;;;;;;29.63;10.90;;;1.00;99.90;;;;;;5095963;28;20123;-82
2022/01/26 10:25:10;;;;;;;24.10;8.57;;;1.00;99.90;;;;;;5095066;28;20200;-82
2022/01/26 10:27:43;;;;;;;22.80;8.87;;;1.00;99.90;;;;;;5095787;28;20515;-81
2022/01/26 10:30:12;;;;;;;21.07;9.33;;;0.90;99.90;;;;;;5101082;28;20083;-81
2022/01/26 10:32:40;;;;;;;26.97;9.43;;;0.90;99.90;;;;;;5106305;28;20080;-81
2022/01/26 10:35:07;;;;;;;21.43;8.53;;;1.00;99.90;;;;;;5104118;28;20024;-82
2022/01/26 10:37:33;;;;;;;25.83;9.47;;;1.00;99.90;;;;;;5105254;28;20027;-81
2022/01/26 10:40:19;;;;;;;19.90;8.87;;;1.10;99.90;;;;;;5105901;28;20027;-82
2022/01/26 10:43:09;;;;;;;23.77;9.03;;;1.10;99.90;;;;;;5122413;28;20029;-83
2022/01/26 10:45:45;;;;;;;17.97;8.07;;;1.00;99.90;;;;;;5116928;28;20035;-83
2022/01/26 10:48:22;;;;;;;23.07;8.93;;;1.00;99.90;;;;;;5092969;28;20028;-81
2022/01/26 10:51:32;;;;;;;19.73;8.80;;;1.00;99.90;;;;;;5093170;28;20024;-82
2022/01/26 10:53:53;;;;;;;21.50;8.37;;;1.00;99.90;;;;;;5109644;28;20024;-82
2022/01/26 10:56:19;;;;;;;20.83;8.80;;;1.00;99.90;;;;;;5095284;28;20027;-83
2022/01/26 10:58:45;;;;;;;20.30;8.70;;;1.10;99.90;;;;;;5113095;28;20077;-80
2022/01/26 11:01:11;;;;;;;22.87;8.87;;;1.10;99.90;;;;;;5096127;28;20269;-80
2022/01/26 11:03:38;;;;;;;19.97;8.17;;;1.10;99.90;;;;;;5098930;28;20055;-84
2022/01/26 11:06:05;;;;;;;19.97;8.77;;;1.20;99.90;;;;;;5098539;28;20064;-84
2022/01/26 11:08:36;;;;;;;17.67;7.70;;;1.20;99.90;;;;;;5122649;27;20034;-81
2022/01/26 11:11:02;;;;;;;20.23;8.30;;;1.20;99.90;;;;;;5103012;27;20054;-80
2022/01/26 11:13:33;;;;;;;16.33;7.63;;;1.20;99.90;;;;;;5129351;27;20073;-80
2022/01/26 11:16:09;;;;;;;19.20;7.33;;;1.20;99.90;;;;;;5104675;27;20027;-81
2022/01/26 11:19:11;;;;;;;14.53;6.90;;;1.20;99.90;;;;;;5107589;27;20023;-84
2022/01/26 11:21:39;;;;;;;17.92;7.85;;;1.20;99.90;;;;;;5086051;28;20035;-83
2022/01/26 11:24:21;;;;;;;15.77;7.90;;;1.20;99.90;;;;;;5098252;28;20031;-83
2022/01/26 11:26:49;;;;;;;;;;;1.20;99.90;;;;;;5113870;28;20046;-81
2022/01/26 11:29:21;;;;;;;19.83;8.47;;;1.20;99.90;;;;;;5109866;27;20372;-85
2022/01/26 11:31:47;;;;;;;;;;;1.10;99.90;;;;;;5094819;28;20123;-83
2022/01/26 11:34:17;;;;;;;20.23;8.37;;;1.10;99.90;;;;;;5098004;28;20061;-83
2022/01/26 11:36:43;;;;;;;21.67;9.07;;;1.10;99.90;;;;;;5121751;27;20484;-80
2022/01/26 11:45:11;;;;;;;20.50;8.97;;;1.10;99.90;;;;;;5071088;27;20062;-82
2022/01/26 11:47:45;;;;;;;23.70;9.73;;;1.10;99.90;;;;;;5102817;28;20028;-82
2022/01/26 11:50:14;;;;;;;22.37;9.10;;;1.10;99.90;;;;;;5128222;27;20464;-83
2022/01/26 11:52:44;;;;;;;22.67;9.33;;;1.20;99.90;;;;;;5102136;28;20031;-84
2022/01/26 11:55:31;;;;;;;25.63;10.43;;;1.20;99.90;;;;;;5097636;28;20028;-84
2022/01/26 11:58:19;;;;;;;21.70;9.47;;;1.20;99.90;;;;;;5095153;28;20028;-84
2022/01/26 12:03:30;;;;;;;28.87;9.90;;;1.20;99.90;;;;;;5116223;28;20541;-88
2022/01/26 12:05:58;;;;;;;23.13;8.63;;;1.20;99.90;;;;;;5114698;28;20071;-89
2022/01/26 12:08:29;;;;;;;22.63;8.53;;;1.20;99.90;;;;;;5115869;28;20024;-88
2022/01/26 12:10:55;;;;;;;20.55;8.35;;;1.20;99.90;;;;;;5097473;28;20069;-86
2022/01/26 12:13:25;;;;;;;26.80;8.80;;;1.10;99.90;;;;;;5096459;28;20051;-87
2022/01/26 12:43:44;;;;;;;19.87;7.87;;;1.20;99.90;;;;;;5115447;28;20031;-83
2022/01/26 12:46:18;;;;;;;20.27;7.70;;;1.30;99.90;;;;;;5114747;28;20027;-83
2022/01/26 12:48:54;;;;;;;18.20;7.07;;;1.20;99.90;;;;;;5097162;28;20031;-84
2022/01/26 12:51:21;;;;;;;20.83;7.80;;;1.30;99.90;;;;;;5114903;28;20098;-84
2022/01/26 12:53:55;;;;;;;21.27;7.70;;;1.30;99.90;;;;;;5115204;28;20485;-83
2022/01/26 12:56:25;;;;;;;21.23;7.67;;;1.30;99.90;;;;;;5097141;28;20027;-80
2022/01/26 12:59:03;;;;;;;17.00;7.03;;;1.30;99.90;;;;;;5089336;28;20028;-81
2022/01/26 13:01:29;;;;;;;17.43;7.13;;;1.30;99.90;;;;;;5094903;28;20027;-81
2022/01/26 13:03:58;;;;;;;18.30;7.37;;;1.30;99.90;;;;;;5095950;28;20088;-87
2022/01/26 13:06:27;;;;;;;20.87;7.50;;;1.30;99.90;;;;;;5114984;28;20502;-85
2022/01/26 13:09:18;;;;;;;17.53;6.60;;;1.30;99.90;;;;;;5114858;28;20023;-85
2022/01/26 13:11:47;;;;;;;21.07;7.10;;;1.30;99.90;;;;;;5108214;28;20379;-85
2022/01/26 13:14:22;;;;;;;17.73;7.03;;;1.30;99.90;;;;;;5095796;28;20035;-83
2022/01/26 13:23:07;;;;;;;20.33;7.50;;;1.40;99.90;;;;;;5113552;28;20498;-82
2022/01/26 13:34:07;;;;;;;19.17;7.53;;;1.40;99.90;;;;;;5112341;28;20092;-78
2022/01/26 13:37:16;;;;;;;17.90;6.90;;;1.40;99.90;;;;;;5119665;27;20418;-79
2022/01/26 13:39:57;;;;;;;18.93;7.03;;;1.40;99.90;;;;;;5114421;27;20032;-77
2022/01/26 13:43:09;;;;;;;17.23;6.87;;;1.40;99.90;;;;;;5095954;28;20035;-82
2022/01/26 13:45:57;;;;;;;19.33;7.27;;;1.40;99.90;;;;;;5112972;28;20073;-79
2022/01/26 13:51:09;;;;;;;19.20;7.20;;;1.50;99.90;;;;;;5114225;28;20023;-79
2022/01/26 13:56:35;;;;;;;19.40;6.87;;;1.50;99.90;;;;;;5113539;28;20031;-80
2022/01/26 14:01:57;;;;;;;16.27;6.50;;;1.50;99.90;;;;;;5085160;28;20411;-81
2022/01/26 14:04:23;;;;;;;14.23;6.43;;;1.50;99.90;;;;;;5095792;28;20028;-80
2022/01/26 14:06:49;;;;;;;18.33;6.47;;;1.60;99.90;;;;;;5095832;28;20047;-79
2022/01/26 14:09:16;;;;;;;20.83;7.63;;;1.60;99.90;;;;;;5095246;28;20085;-79
2022/01/26 14:11:47;;;;;;;18.67;6.50;;;1.60;99.90;;;;;;5095691;28;20069;-79
2022/01/26 14:14:20;;;;;;;14.13;6.93;;;1.60;99.90;;;;;;5113294;28;20042;-79
2022/01/26 14:16:55;;;;;;;19.07;7.00;;;1.50;99.90;;;;;;5095690;28;20028;-79
2022/01/26 14:19:28;;;;;;;15.47;6.83;;;1.50;99.90;;;;;;5095205;28;20077;-79
2022/01/26 14:25:05;;;;;;;18.73;7.90;;;1.60;99.90;;;;;;5113627;28;20497;-79
2022/01/26 14:30:38;;;;;;;19.30;7.20;;;1.60;99.90;;;;;;5104148;28;20484;-79
2022/01/26 14:36:24;;;;;;;16.57;6.83;;;1.60;99.90;;;;;;5072304;28;20021;-79
2022/01/26 14:53:26;;;;;;;21.43;7.57;;;1.60;99.90;;;;;;5117465;28;20035;-79
2022/01/26 15:30:18;;;;;;;20.07;6.60;;;1.50;99.90;;;;;;5105829;28;20589;-79
2022/01/26 15:41:49;;;;;;;17.17;7.17;;;1.50;99.90;;;;;;5116471;28;20035;-79
2022/01/26 15:44:25;;;;;;;19.37;6.53;;;1.50;99.90;;;;;;5097129;28;20087;-79
2022/01/26 16:05:51;;;;;;;15.60;7.07;;;1.50;99.90;;;;;;5115625;28;20038;-79
2022/01/26 16:08:30;;;;;;;17.37;7.23;;;1.50;99.90;;;;;;5102317;28;20059;-79
2022/01/26 16:26:17;;;;;;;18.20;6.73;;;1.40;99.90;;;;;;5115757;28;20453;-81
2022/01/26 16:35:28;;;;;;;23.43;8.60;;;1.30;99.90;;;;;;5114959;28;20058;-79
2022/01/26 16:38:14;;;;;;;19.93;7.23;;;1.30;99.90;;;;;;5097461;28;20111;-79
2022/01/26 18:15:52;;;;;;;17.67;6.70;;;1.20;99.90;;;;;;5113759;28;20408;-80
2022/01/26 18:50:44;;;;;;;17.83;6.90;;;0.90;99.90;;;;;;5113451;28;20077;-81
2022/01/26 18:53:11;;;;;;;17.87;6.50;;;1.00;99.90;;;;;;5094824;28;20035;-81
2022/01/26 18:55:37;;;;;;;16.80;7.10;;;0.90;99.90;;;;;;5095012;28;20031;-81
2022/01/26 18:58:03;;;;;;;16.13;7.57;;;0.90;99.90;;;;;;5095132;28;20457;-81
2022/01/26 19:00:28;;;;;;;16.50;6.80;;;0.90;99.90;;;;;;5094545;28;20412;-81
2022/01/26 19:02:54;;;;;;;15.37;6.50;;;0.90;99.90;;;;;;5095419;28;20028;-81
2022/01/26 19:05:20;;;;;;;14.80;6.27;;;0.90;99.90;;;;;;5112766;28;20019;-81
2022/01/26 19:07:45;;;;;;;17.60;7.13;;;0.90;99.90;;;;;;5095236;28;20103;-81
2022/01/26 19:10:12;;;;;;;17.97;7.07;;;0.80;99.90;;;;;;5112784;28;20099;-80
2022/01/26 19:12:39;;;;;;;17.17;6.67;;;0.80;99.90;;;;;;5095099;28;20028;-81
2022/01/26 19:15:11;;;;;;;15.43;6.30;;;0.90;99.90;;;;;;5094555;28;20040;-82
2022/01/26 19:17:47;;;;;;;19.25;7.45;;;0.90;99.90;;;;;;5113154;28;20019;-80
2022/01/26 19:25:34;;;;;;;18.50;6.77;;;0.80;99.90;;;;;;5115902;28;20057;-81
2022/01/26 19:41:54;;;;;;;15.67;6.47;;;0.70;99.90;;;;;;5116470;28;20110;-81
2022/01/26 19:52:06;;;;;;;14.83;6.20;;;0.70;99.90;;;;;;5095688;28;20149;-79
2022/01/26 19:54:32;;;;;;;19.03;7.03;;;0.70;99.90;;;;;;5106736;28;20049;-80
2022/01/26 19:56:58;;;;;;;17.10;6.80;;;0.80;99.90;;;;;;5097925;28;20027;-80
2022/01/26 19:59:24;;;;;;;15.97;7.03;;;0.80;99.90;;;;;;5115570;28;20022;-80
2022/01/26 20:01:50;;;;;;;16.73;6.33;;;0.80;99.90;;;;;;5097815;28;20020;-80
2022/01/26 20:04:15;;;;;;;18.23;6.37;;;0.80;99.90;;;;;;5097433;28;20046;-81
2022/01/26 20:06:42;;;;;;;16.40;6.47;;;0.80;99.90;;;;;;5097836;28;20031;-80
2022/01/26 20:09:28;;;;;;;16.37;6.60;;;0.80;99.90;;;;;;5115515;28;20393;-81